sensor_id;sensor_type;location;lat;lon;timestamp;P1;durP1;ratioP1;P2;durP2;ratioP2
54917;SDS011;40818;50.562;7.454;2023-04-15T00:00:01;4.10;;;0.38;;
54917;SDS011;40818;50.562;7.454;2023-04-15T00:10:15;3.90;;;0.35;;
54917;SDS011;40818;50.562;7.454;2023-04-15T00:20:19;6.38;;;0.40;;
54917;SDS011;40818;50.562;7.454;2023-04-15T00:30:25;5.38;;;0.30;;
54917;SDS011;40818;50.562;7.454;2023-04-15T00:40:29;7.47;;;0.22;;
54917;SDS011;40818;50.562;7.454;2023-04-15T00:50:35;4.72;;;0.30;;
54917;SDS011;40818;50.562;7.454;2023-04-15T01:00:38;3.67;;;0.30;;
54917;SDS011;40818;50.562;7.454;2023-04-15T01:10:44;4.05;;;0.40;;
54917;SDS011;40818;50.562;7.454;2023-04-15T01:20:48;3.38;;;0.30;;
54917;SDS011;40818;50.562;7.454;2023-04-15T01:31:06;3.85;;;0.28;;
54917;SDS011;40818;50.562;7.454;2023-04-15T01:41:12;1.52;;;0.25;;
54917;SDS011;40818;50.562;7.454;2023-04-15T01:51:20;2.17;;;0.30;;
54917;SDS011;40818;50.562;7.454;2023-04-15T02:01:24;4.95;;;0.30;;
54917;SDS011;40818;50.562;7.454;2023-04-15T02:11:30;9.27;;;0.40;;
54917;SDS011;40818;50.562;7.454;2023-04-15T02:21:34;3.25;;;0.60;;
54917;SDS011;40818;50.562;7.454;2023-04-15T02:31:40;2.38;;;0.30;;
54917;SDS011;40818;50.562;7.454;2023-04-15T02:41:44;1.05;;;0.20;;
54917;SDS011;40818;50.562;7.454;2023-04-15T02:51:54;4.88;;;0.65;;
54917;SDS011;40818;50.562;7.454;2023-04-15T03:01:59;2.88;;;0.20;;
54917;SDS011;40818;50.562;7.454;2023-04-15T03:12:05;2.85;;;0.30;;
54917;SDS011;40818;50.562;7.454;2023-04-15T03:22:09;3.60;;;0.35;;
54917;SDS011;40818;50.562;7.454;2023-04-15T03:32:15;2.55;;;0.30;;
54917;SDS011;40818;50.562;7.454;2023-04-15T03:42:19;5.80;;;0.47;;
54917;SDS011;40818;50.562;7.454;2023-04-15T03:52:25;4.00;;;0.50;;
54917;SDS011;40818;50.562;7.454;2023-04-15T04:02:28;2.40;;;0.40;;
54917;SDS011;40818;50.562;7.454;2023-04-15T04:12:34;4.57;;;0.40;;
54917;SDS011;40818;50.562;7.454;2023-04-15T04:22:38;2.55;;;0.30;;
54917;SDS011;40818;50.562;7.454;2023-04-15T04:32:44;2.97;;;0.40;;
54917;SDS011;40818;50.562;7.454;2023-04-15T04:42:48;4.93;;;0.40;;
54917;SDS011;40818;50.562;7.454;2023-04-15T04:52:54;4.72;;;0.50;;
54917;SDS011;40818;50.562;7.454;2023-04-15T05:02:57;5.70;;;0.50;;
54917;SDS011;40818;50.562;7.454;2023-04-15T05:13:03;5.22;;;0.57;;
54917;SDS011;40818;50.562;7.454;2023-04-15T05:23:06;2.50;;;0.50;;
54917;SDS011;40818;50.562;7.454;2023-04-15T05:33:13;4.15;;;0.40;;
54917;SDS011;40818;50.562;7.454;2023-04-15T05:43:16;3.78;;;0.50;;
54917;SDS011;40818;50.562;7.454;2023-04-15T05:53:22;5.47;;;0.95;;
54917;SDS011;40818;50.562;7.454;2023-04-15T06:03:26;2.58;;;0.40;;
54917;SDS011;40818;50.562;7.454;2023-04-15T06:13:32;2.80;;;0.40;;
54917;SDS011;40818;50.562;7.454;2023-04-15T06:23:36;2.15;;;0.50;;
54917;SDS011;40818;50.562;7.454;2023-04-15T06:33:42;4.05;;;0.40;;
54917;SDS011;40818;50.562;7.454;2023-04-15T06:43:46;1.60;;;0.40;;
54917;SDS011;40818;50.562;7.454;2023-04-15T06:53:52;2.28;;;0.40;;
54917;SDS011;40818;50.562;7.454;2023-04-15T07:03:56;4.50;;;0.70;;
54917;SDS011;40818;50.562;7.454;2023-04-15T07:14:02;6.15;;;0.90;;
54917;SDS011;40818;50.562;7.454;2023-04-15T07:24:05;3.90;;;0.80;;
54917;SDS011;40818;50.562;7.454;2023-04-15T07:34:12;4.35;;;0.90;;
54917;SDS011;40818;50.562;7.454;2023-04-15T07:44:15;2.35;;;0.73;;
54917;SDS011;40818;50.562;7.454;2023-04-15T07:54:21;3.40;;;0.90;;
54917;SDS011;40818;50.562;7.454;2023-04-15T08:04:25;2.42;;;0.80;;
54917;SDS011;40818;50.562;7.454;2023-04-15T08:14:31;3.00;;;0.80;;
54917;SDS011;40818;50.562;7.454;2023-04-15T08:24:35;4.18;;;0.80;;
54917;SDS011;40818;50.562;7.454;2023-04-15T08:34:41;6.22;;;0.80;;
54917;SDS011;40818;50.562;7.454;2023-04-15T08:44:44;2.40;;;0.70;;
54917;SDS011;40818;50.562;7.454;2023-04-15T08:54:52;2.00;;;0.50;;
54917;SDS011;40818;50.562;7.454;2023-04-15T09:05:02;2.63;;;0.60;;
54917;SDS011;40818;50.562;7.454;2023-04-15T09:15:09;0.82;;;0.30;;
54917;SDS011;40818;50.562;7.454;2023-04-15T09:25:24;2.55;;;0.40;;
54917;SDS011;40818;50.562;7.454;2023-04-15T09:35:31;3.38;;;0.50;;
54917;SDS011;40818;50.562;7.454;2023-04-15T09:45:36;1.50;;;0.40;;
54917;SDS011;40818;50.562;7.454;2023-04-15T09:55:45;0.68;;;0.20;;
54917;SDS011;40818;50.562;7.454;2023-04-15T10:05:49;0.63;;;0.10;;
54917;SDS011;40818;50.562;7.454;2023-04-15T10:15:58;0.90;;;0.13;;
54917;SDS011;40818;50.562;7.454;2023-04-15T10:26:02;1.85;;;0.20;;
54917;SDS011;40818;50.562;7.454;2023-04-15T10:36:09;0.65;;;0.10;;
54917;SDS011;40818;50.562;7.454;2023-04-15T10:46:17;1.73;;;0.30;;
54917;SDS011;40818;50.562;7.454;2023-04-15T10:56:24;0.50;;;0.10;;
54917;SDS011;40818;50.562;7.454;2023-04-15T11:06:41;0.68;;;0.10;;
54917;SDS011;40818;50.562;7.454;2023-04-15T11:16:49;1.08;;;0.30;;
54917;SDS011;40818;50.562;7.454;2023-04-15T11:26:56;2.25;;;0.28;;
54917;SDS011;40818;50.562;7.454;2023-04-15T11:37:05;1.10;;;0.30;;
54917;SDS011;40818;50.562;7.454;2023-04-15T11:47:20;1.20;;;0.40;;
54917;SDS011;40818;50.562;7.454;2023-04-15T11:57:32;1.25;;;0.40;;
54917;SDS011;40818;50.562;7.454;2023-04-15T12:18:03;1.88;;;0.52;;
54917;SDS011;40818;50.562;7.454;2023-04-15T12:28:09;1.98;;;0.73;;
54917;SDS011;40818;50.562;7.454;2023-04-15T12:38:15;1.65;;;0.63;;
54917;SDS011;40818;50.562;7.454;2023-04-15T12:48:19;2.20;;;0.90;;
54917;SDS011;40818;50.562;7.454;2023-04-15T12:58:25;2.22;;;0.95;;
54917;SDS011;40818;50.562;7.454;2023-04-15T13:08:28;3.78;;;1.42;;
54917;SDS011;40818;50.562;7.454;2023-04-15T13:18:34;2.80;;;1.00;;
54917;SDS011;40818;50.562;7.454;2023-04-15T13:28:38;3.30;;;1.00;;
54917;SDS011;40818;50.562;7.454;2023-04-15T13:38:44;2.47;;;0.80;;
54917;SDS011;40818;50.562;7.454;2023-04-15T13:48:47;2.00;;;0.80;;
54917;SDS011;40818;50.562;7.454;2023-04-15T13:58:54;3.50;;;1.10;;
54917;SDS011;40818;50.562;7.454;2023-04-15T14:08:58;3.17;;;0.90;;
54917;SDS011;40818;50.562;7.454;2023-04-15T14:19:04;3.25;;;1.10;;
54917;SDS011;40818;50.562;7.454;2023-04-15T14:29:08;3.20;;;1.10;;
54917;SDS011;40818;50.562;7.454;2023-04-15T14:39:15;3.05;;;1.20;;
54917;SDS011;40818;50.562;7.454;2023-04-15T14:49:18;2.85;;;1.00;;
54917;SDS011;40818;50.562;7.454;2023-04-15T14:59:25;2.88;;;1.00;;
54917;SDS011;40818;50.562;7.454;2023-04-15T15:09:29;3.38;;;1.20;;
54917;SDS011;40818;50.562;7.454;2023-04-15T15:19:35;3.75;;;1.10;;
54917;SDS011;40818;50.562;7.454;2023-04-15T15:29:38;3.67;;;1.27;;
54917;SDS011;40818;50.562;7.454;2023-04-15T15:39:44;4.68;;;1.63;;
54917;SDS011;40818;50.562;7.454;2023-04-15T15:49:49;5.85;;;2.85;;
54917;SDS011;40818;50.562;7.454;2023-04-15T15:59:55;5.35;;;3.53;;
54917;SDS011;40818;50.562;7.454;2023-04-15T16:09:59;4.05;;;1.85;;
54917;SDS011;40818;50.562;7.454;2023-04-15T16:20:05;4.18;;;1.83;;
54917;SDS011;40818;50.562;7.454;2023-04-15T16:30:11;5.55;;;1.80;;
54917;SDS011;40818;50.562;7.454;2023-04-15T16:40:17;3.60;;;1.75;;
54917;SDS011;40818;50.562;7.454;2023-04-15T16:50:21;6.85;;;2.72;;
54917;SDS011;40818;50.562;7.454;2023-04-15T17:00:27;3.20;;;1.23;;
54917;SDS011;40818;50.562;7.454;2023-04-15T17:10:31;3.60;;;1.63;;
54917;SDS011;40818;50.562;7.454;2023-04-15T17:20:37;3.47;;;0.90;;
54917;SDS011;40818;50.562;7.454;2023-04-15T17:30:41;27.45;;;7.70;;
54917;SDS011;40818;50.562;7.454;2023-04-15T17:40:47;5.57;;;0.70;;
54917;SDS011;40818;50.562;7.454;2023-04-15T17:50:50;2.50;;;1.38;;
54917;SDS011;40818;50.562;7.454;2023-04-15T18:00:56;2.30;;;0.80;;
54917;SDS011;40818;50.562;7.454;2023-04-15T18:11:00;6.75;;;1.77;;
54917;SDS011;40818;50.562;7.454;2023-04-15T18:21:06;3.13;;;0.98;;
54917;SDS011;40818;50.562;7.454;2023-04-15T18:31:09;2.08;;;0.80;;
54917;SDS011;40818;50.562;7.454;2023-04-15T18:41:16;3.35;;;0.90;;
54917;SDS011;40818;50.562;7.454;2023-04-15T18:51:19;3.58;;;1.10;;
54917;SDS011;40818;50.562;7.454;2023-04-15T19:01:25;4.13;;;1.90;;
54917;SDS011;40818;50.562;7.454;2023-04-15T19:11:29;9.48;;;2.17;;
54917;SDS011;40818;50.562;7.454;2023-04-15T19:21:35;5.32;;;2.30;;
54917;SDS011;40818;50.562;7.454;2023-04-15T19:31:39;5.00;;;2.47;;
54917;SDS011;40818;50.562;7.454;2023-04-15T19:41:45;6.97;;;3.70;;
54917;SDS011;40818;50.562;7.454;2023-04-15T19:51:49;8.48;;;4.53;;
54917;SDS011;40818;50.562;7.454;2023-04-15T20:01:55;15.32;;;7.18;;
54917;SDS011;40818;50.562;7.454;2023-04-15T20:11:58;14.38;;;8.85;;
54917;SDS011;40818;50.562;7.454;2023-04-15T20:22:04;11.75;;;7.28;;
54917;SDS011;40818;50.562;7.454;2023-04-15T20:32:08;11.85;;;7.57;;
54917;SDS011;40818;50.562;7.454;2023-04-15T20:42:14;13.15;;;7.13;;
54917;SDS011;40818;50.562;7.454;2023-04-15T20:52:18;10.23;;;5.85;;
54917;SDS011;40818;50.562;7.454;2023-04-15T21:02:24;10.55;;;5.75;;
54917;SDS011;40818;50.562;7.454;2023-04-15T21:12:27;7.78;;;5.18;;
54917;SDS011;40818;50.562;7.454;2023-04-15T21:22:33;6.30;;;4.13;;
54917;SDS011;40818;50.562;7.454;2023-04-15T21:32:37;8.25;;;4.05;;
54917;SDS011;40818;50.562;7.454;2023-04-15T21:42:43;6.70;;;3.72;;
54917;SDS011;40818;50.562;7.454;2023-04-15T21:52:48;10.98;;;4.55;;
54917;SDS011;40818;50.562;7.454;2023-04-15T22:02:54;8.05;;;4.38;;
54917;SDS011;40818;50.562;7.454;2023-04-15T22:12:57;10.02;;;6.13;;
54917;SDS011;40818;50.562;7.454;2023-04-15T22:23:04;11.63;;;5.15;;
54917;SDS011;40818;50.562;7.454;2023-04-15T22:33:09;10.95;;;5.63;;
54917;SDS011;40818;50.562;7.454;2023-04-15T22:43:15;16.27;;;8.20;;
54917;SDS011;40818;50.562;7.454;2023-04-15T22:53:19;19.05;;;9.18;;
54917;SDS011;40818;50.562;7.454;2023-04-15T23:03:25;14.23;;;8.40;;
54917;SDS011;40818;50.562;7.454;2023-04-15T23:13:28;19.45;;;8.48;;
54917;SDS011;40818;50.562;7.454;2023-04-15T23:23:34;18.70;;;6.32;;
54917;SDS011;40818;50.562;7.454;2023-04-15T23:33:38;15.18;;;4.60;;
54917;SDS011;40818;50.562;7.454;2023-04-15T23:43:44;12.93;;;5.72;;
54917;SDS011;40818;50.562;7.454;2023-04-15T23:53:48;24.55;;;8.93;;
